createdAt,value
2022-08-11T00:01:52.158Z,39.01
2022-08-11T00:04:20.294Z,38.98
2022-08-11T00:06:48.520Z,38.94
2022-08-11T00:09:22.254Z,39.03
2022-08-11T00:11:52.437Z,39.09
2022-08-11T00:14:22.095Z,39.08
2022-08-11T00:17:01.324Z,38.88
2022-08-11T00:20:13.672Z,39.15
2022-08-11T00:22:21.838Z,38.89
2022-08-11T00:24:54.856Z,39.02
2022-08-11T00:27:37.409Z,38.99
2022-08-11T00:30:06.019Z,39.04
2022-08-11T00:32:33.796Z,38.91
2022-08-11T00:35:51.480Z,38.93
2022-08-11T00:37:50.856Z,39.00
2022-08-11T00:40:32.333Z,38.98
2022-08-11T00:43:23.003Z,38.92
2022-08-11T00:46:14.525Z,38.90
2022-08-11T00:49:00.726Z,38.85
2022-08-11T00:52:04.953Z,38.95
2022-08-11T00:54:33.268Z,39.05
2022-08-11T00:57:51.371Z,38.92
2022-08-11T01:00:23.411Z,39.17
2022-08-11T01:03:13.567Z,38.82
2022-08-11T01:06:07.766Z,38.91
2022-08-11T01:08:55.827Z,38.82
2022-08-11T01:11:40.079Z,39.01
2022-08-11T01:14:33.902Z,38.79
2022-08-11T01:17:35.979Z,39.03
2022-08-11T01:20:47.481Z,39.08
2022-08-11T01:23:39.062Z,38.99
2022-08-11T01:26:29.630Z,38.96
2022-08-11T01:29:24.154Z,38.97
2022-08-11T01:32:08.373Z,38.93
2022-08-11T01:35:00.076Z,38.84
2022-08-11T01:37:52.878Z,39.03
2022-08-11T01:40:23.394Z,39.01
2022-08-11T01:44:03.694Z,39.08
2022-08-11T01:46:48.023Z,39.11
2022-08-11T01:50:07.712Z,39.05
2022-08-11T01:52:34.806Z,38.89
2022-08-11T01:55:19.838Z,39.18
2022-08-11T01:58:01.190Z,39.04
2022-08-11T02:00:30.688Z,39.03
2022-08-11T02:03:00.419Z,38.92
2022-08-11T02:05:48.321Z,39.04
2022-08-11T02:08:50.592Z,39.22
2022-08-11T02:11:34.416Z,39.04
2022-08-11T02:14:12.290Z,39.12
2022-08-11T02:16:57.543Z,39.16
2022-08-11T02:20:19.988Z,39.16
2022-08-11T02:23:13.419Z,39.08
2022-08-11T02:26:24.093Z,39.20
2022-08-11T02:29:10.611Z,39.24
2022-08-11T02:32:15.425Z,39.01
2022-08-11T02:34:59.445Z,39.11
2022-08-11T02:37:33.072Z,39.05
2022-08-11T02:40:10.899Z,39.06
2022-08-11T02:42:46.606Z,39.04
2022-08-11T02:45:33.124Z,39.14
2022-08-11T02:48:54.057Z,39.11
2022-08-11T02:51:29.744Z,39.24
2022-08-11T02:54:02.594Z,39.28
2022-08-11T02:56:53.199Z,39.19
2022-08-11T02:59:50.038Z,39.25
2022-08-11T03:02:53.859Z,39.02
2022-08-11T03:05:28.027Z,39.23
2022-08-11T03:08:12.816Z,39.27
2022-08-11T03:11:14.837Z,39.14
2022-08-11T03:14:10.922Z,39.28
2022-08-11T03:16:57.553Z,39.21
2022-08-11T03:19:45.396Z,39.22
2022-08-11T03:22:31.011Z,39.44
2022-08-11T03:25:12.994Z,39.41
2022-08-11T03:27:49.156Z,39.38
2022-08-11T03:30:27.744Z,39.38
2022-08-11T03:33:21.074Z,39.17
2022-08-11T03:36:31.831Z,39.28
2022-08-11T03:39:03.501Z,39.32
2022-08-11T03:42:04.489Z,39.25
2022-08-11T03:44:38.032Z,39.18
2022-08-11T03:47:25.781Z,39.28
2022-08-11T03:50:24.855Z,39.32
2022-08-11T03:53:10.606Z,39.38
2022-08-11T03:56:09.178Z,39.39
2022-08-11T03:59:00.470Z,39.42
2022-08-11T04:01:54.967Z,39.49
2022-08-11T04:04:50.655Z,39.26
2022-08-11T04:07:50.344Z,39.22
2022-08-11T04:10:38.011Z,39.48
2022-08-11T04:13:35.791Z,39.43
2022-08-11T04:16:23.988Z,39.58
2022-08-11T04:19:21.358Z,39.55
2022-08-11T04:21:58.381Z,39.73
2022-08-11T04:24:37.853Z,39.50
2022-08-11T04:27:37.263Z,39.50
2022-08-11T04:30:17.979Z,39.45
2022-08-11T04:32:59.854Z,39.50
2022-08-11T04:35:51.425Z,39.29
2022-08-11T04:38:46.398Z,39.55
2022-08-11T04:42:05.158Z,39.35
2022-08-11T04:45:00.102Z,39.57
2022-08-11T04:48:01.803Z,39.46
2022-08-11T04:51:16.961Z,39.53
2022-08-11T04:54:28.445Z,39.70
2022-08-11T04:57:20.135Z,39.52
2022-08-11T05:00:29.720Z,39.63
2022-08-11T05:03:02.534Z,39.74
2022-08-11T05:05:54.676Z,39.61
2022-08-11T05:09:01.803Z,39.62
2022-08-11T05:11:40.409Z,39.47
2022-08-11T05:14:31.484Z,39.51
2022-08-11T05:17:28.240Z,38.75
2022-08-11T05:20:13.329Z,38.38
2022-08-11T05:23:09.096Z,37.84
2022-08-11T05:26:45.531Z,37.83
2022-08-11T05:29:19.471Z,37.58
2022-08-11T05:32:10.745Z,37.61
2022-08-11T05:34:54.886Z,37.57
2022-08-11T05:37:30.689Z,37.58
2022-08-11T05:40:30.631Z,37.54
2022-08-11T05:43:18.648Z,37.67
2022-08-11T05:46:07.048Z,37.85
2022-08-11T05:48:54.988Z,37.81
2022-08-11T05:51:54.699Z,37.84
2022-08-11T05:54:46.045Z,37.75
2022-08-11T05:57:48.973Z,37.42
2022-08-11T06:00:10.555Z,37.63
2022-08-11T06:02:49.559Z,37.52
2022-08-11T06:05:16.738Z,37.47
2022-08-11T06:07:49.594Z,37.73
2022-08-11T06:10:30.147Z,37.60
2022-08-11T06:12:58.497Z,37.74
2022-08-11T06:15:26.098Z,37.48
2022-08-11T06:17:54.148Z,37.39
2022-08-11T06:20:22.090Z,37.61
2022-08-11T06:22:56.333Z,37.21
2022-08-11T06:25:23.999Z,37.39
2022-08-11T06:27:56.555Z,37.34
2022-08-11T06:30:35.473Z,37.39
2022-08-11T06:33:04.433Z,37.42
2022-08-11T06:35:53.172Z,37.71
2022-08-11T06:38:58.826Z,37.85
2022-08-11T06:41:31.988Z,37.89
2022-08-11T06:44:13.787Z,37.95
2022-08-11T06:46:46.836Z,37.76
2022-08-11T06:49:34.030Z,37.84
2022-08-11T06:52:04.569Z,38.06
2022-08-11T06:54:34.707Z,37.91
2022-08-11T06:57:35.952Z,37.90
2022-08-11T07:00:21.788Z,37.99
2022-08-11T07:03:08.453Z,38.05
2022-08-11T07:05:37.843Z,38.10
2022-08-11T07:08:36.070Z,37.96
2022-08-11T07:11:27.580Z,38.32
2022-08-11T07:14:14.067Z,38.20
2022-08-11T07:16:42.500Z,38.15
2022-08-11T07:19:27.939Z,38.14
2022-08-11T07:22:14.603Z,38.21
2022-08-11T07:25:03.589Z,38.34
2022-08-11T07:27:55.429Z,38.33
2022-08-11T07:30:22.432Z,38.29
2022-08-11T07:32:55.924Z,38.33
2022-08-11T07:35:30.253Z,38.59
2022-08-11T07:38:07.283Z,38.40
2022-08-11T07:40:35.835Z,38.46
2022-08-11T07:43:03.871Z,38.45
2022-08-11T07:45:49.251Z,38.31
2022-08-11T07:48:35.975Z,38.51
2022-08-11T07:51:21.517Z,38.47
2022-08-11T07:53:58.317Z,38.62
2022-08-11T07:56:54.137Z,38.61
2022-08-11T08:00:00.379Z,38.57
2022-08-11T08:02:47.884Z,38.55
2022-08-11T08:05:33.723Z,38.65
2022-08-11T08:08:19.292Z,38.57
2022-08-11T08:11:04.602Z,38.59
2022-08-11T08:13:51.317Z,38.58
2022-08-11T08:16:36.587Z,38.64
2022-08-11T08:19:03.388Z,38.68
2022-08-11T08:21:30.245Z,38.43
2022-08-11T08:23:58.779Z,38.64
2022-08-11T08:26:51.546Z,38.55
2022-08-11T08:29:38.479Z,38.57
2022-08-11T08:32:05.731Z,38.63
2022-08-11T08:34:33.873Z,38.93
2022-08-11T08:37:01.506Z,39.00
2022-08-11T08:39:28.348Z,39.23
2022-08-11T08:41:56.869Z,39.25
2022-08-11T08:44:38.210Z,39.32
2022-08-11T08:47:06.784Z,39.45
2022-08-11T08:49:40.638Z,39.30
2022-08-11T08:52:21.728Z,39.42
2022-08-11T08:54:57.468Z,39.42
2022-08-11T08:57:28.107Z,39.43
2022-08-11T08:59:55.214Z,39.40
2022-08-11T09:02:34.584Z,39.56
2022-08-11T09:05:03.981Z,39.44
2022-08-11T09:07:39.950Z,39.69
2022-08-11T09:10:07.633Z,39.85
2022-08-11T09:12:38.521Z,39.87
2022-08-11T09:15:08.214Z,39.54
2022-08-11T09:17:39.773Z,39.01
2022-08-11T09:20:15.468Z,38.78
2022-08-11T09:24:02.069Z,38.97
2022-08-11T09:26:14.933Z,38.97
2022-08-11T09:28:45.920Z,38.78
2022-08-11T09:31:13.728Z,38.99
2022-08-11T09:33:42.703Z,38.95
2022-08-11T09:36:28.384Z,39.12
2022-08-11T09:39:17.144Z,39.08
2022-08-11T09:42:01.131Z,39.26
2022-08-11T09:44:49.474Z,39.16
2022-08-11T09:47:17.614Z,39.48
2022-08-11T09:49:49.123Z,39.31
2022-08-11T09:52:16.211Z,39.16
2022-08-11T09:54:43.435Z,38.96
2022-08-11T09:57:33.620Z,38.96
2022-08-11T10:00:12.859Z,39.11
2022-08-11T10:02:46.544Z,38.99
2022-08-11T10:05:35.335Z,39.03
2022-08-11T10:08:02.529Z,39.01
2022-08-11T10:10:29.982Z,38.74
2022-08-11T10:13:00.232Z,38.78
2022-08-11T10:15:40.035Z,38.79
2022-08-11T10:18:42.496Z,38.79
2022-08-11T10:21:15.793Z,38.99
2022-08-11T10:24:05.888Z,38.80
2022-08-11T10:26:53.643Z,38.68
2022-08-11T10:29:44.537Z,38.76
2022-08-11T10:32:49.356Z,38.77
2022-08-11T10:35:28.852Z,38.59
2022-08-11T10:38:07.699Z,38.62
2022-08-11T10:40:38.486Z,38.66
2022-08-11T10:43:10.710Z,38.78
2022-08-11T10:45:57.505Z,38.63
2022-08-11T10:48:26.091Z,38.63
2022-08-11T10:51:12.175Z,38.50
2022-08-11T10:54:03.819Z,38.54
2022-08-11T10:56:52.872Z,38.56
2022-08-11T10:59:19.935Z,38.50
2022-08-11T11:01:47.177Z,38.45
2022-08-11T11:04:16.630Z,38.44
2022-08-11T11:06:54.692Z,38.50
2022-08-11T11:09:51.506Z,38.65
2022-08-11T11:12:44.377Z,38.70
2022-08-11T11:15:30.409Z,38.58
2022-08-11T11:18:07.032Z,38.62
2022-08-11T11:20:49.946Z,38.48
2022-08-11T11:23:54.994Z,38.63
2022-08-11T11:26:39.817Z,38.34
2022-08-11T11:29:25.590Z,38.53
2022-08-11T11:32:00.931Z,38.70
2022-08-11T11:34:53.537Z,38.74
2022-08-11T11:37:23.110Z,38.59
2022-08-11T11:39:50.025Z,38.45
2022-08-11T11:42:17.418Z,38.58
2022-08-11T11:44:45.296Z,38.34
2022-08-11T11:47:12.614Z,38.47
2022-08-11T11:49:44.330Z,38.52
2022-08-11T11:52:19.247Z,38.56
2022-08-11T11:54:51.040Z,38.39
2022-08-11T11:57:37.796Z,38.56
2022-08-11T12:00:33.076Z,38.17
2022-08-11T12:03:03.346Z,38.44
2022-08-11T12:05:32.167Z,38.06
2022-08-11T12:08:17.379Z,38.27
2022-08-11T12:10:50.988Z,37.84
2022-08-11T12:13:36.654Z,38.01
2022-08-11T12:16:32.871Z,38.18
2022-08-11T12:18:56.709Z,38.16
2022-08-11T12:21:24.108Z,37.80
2022-08-11T12:24:09.825Z,37.97
2022-08-11T12:27:15.966Z,37.87
2022-08-11T12:29:44.473Z,37.81
2022-08-11T12:32:11.526Z,37.77
2022-08-11T12:34:38.367Z,37.86
2022-08-11T12:37:13.637Z,37.93
2022-08-11T12:40:15.601Z,37.90
2022-08-11T12:43:21.546Z,37.97
2022-08-11T12:45:54.652Z,38.26
2022-08-11T12:49:00.784Z,37.91
2022-08-11T12:52:12.292Z,37.86
2022-08-11T12:54:50.847Z,37.87
2022-08-11T12:57:49.591Z,37.85
2022-08-11T13:00:36.669Z,37.77
2022-08-11T13:03:24.773Z,37.72
2022-08-11T13:05:54.869Z,37.81
2022-08-11T13:08:25.079Z,37.77
2022-08-11T13:11:12.154Z,37.62
2022-08-11T13:13:55.968Z,37.53
2022-08-11T13:16:31.986Z,37.60
2022-08-11T13:19:01.537Z,37.43
2022-08-11T13:21:28.865Z,37.39
2022-08-11T13:24:01.784Z,37.56
2022-08-11T13:26:43.344Z,37.35
2022-08-11T13:29:17.390Z,37.25
2022-08-11T13:31:45.398Z,37.36
2022-08-11T13:34:12.557Z,37.31
2022-08-11T13:36:39.489Z,37.42
2022-08-11T13:39:06.323Z,37.40
2022-08-11T13:41:44.212Z,37.33
2022-08-11T13:44:15.639Z,37.10
2022-08-11T13:46:45.504Z,37.19
2022-08-11T13:49:16.619Z,37.38
2022-08-11T13:51:43.988Z,37.28
2022-08-11T13:54:13.304Z,37.25
2022-08-11T13:56:43.397Z,37.35
2022-08-11T13:59:10.577Z,37.05
2022-08-11T14:02:03.906Z,37.29
2022-08-11T14:04:34.594Z,37.16
2022-08-11T14:07:06.746Z,37.31
2022-08-11T14:09:37.726Z,37.02
2022-08-11T14:12:29.035Z,37.19
2022-08-11T14:15:22.818Z,37.21
2022-08-11T14:17:54.375Z,37.05
2022-08-11T14:20:38.090Z,37.15
2022-08-11T14:23:07.426Z,36.98
2022-08-11T14:25:59.537Z,37.02
2022-08-11T14:28:31.224Z,37.08
2022-08-11T14:31:03.832Z,37.13
2022-08-11T14:33:38.146Z,36.97
2022-08-11T14:36:20.507Z,37.04
2022-08-11T14:38:48.285Z,36.92
2022-08-11T14:41:34.041Z,36.96
2022-08-11T14:44:19.415Z,36.71
2022-08-11T14:47:05.024Z,36.72
2022-08-11T14:50:09.312Z,36.80
2022-08-11T14:52:39.645Z,36.71
2022-08-11T14:55:26.348Z,36.67
2022-08-11T14:57:54.810Z,36.68
2022-08-11T15:00:23.740Z,36.41
2022-08-11T15:03:09.379Z,36.52
2022-08-11T15:05:39.321Z,36.41
2022-08-11T15:08:06.999Z,36.51
2022-08-11T15:10:34.090Z,36.41
2022-08-11T15:13:01.243Z,36.29
2022-08-11T15:15:48.276Z,36.24
2022-08-11T15:18:18.337Z,37.00
2022-08-11T15:21:05.534Z,36.84
2022-08-11T15:23:50.929Z,37.26
2022-08-11T15:26:42.555Z,37.08
2022-08-11T15:29:28.652Z,37.32
2022-08-11T15:32:14.507Z,37.07
2022-08-11T15:35:03.698Z,36.70
2022-08-11T15:37:32.189Z,36.14
2022-08-11T15:40:33.430Z,35.96
2022-08-11T15:43:39.703Z,36.53
2022-08-11T15:46:17.190Z,36.52
2022-08-11T15:48:49.246Z,36.11
2022-08-11T15:51:32.989Z,36.63
2022-08-11T15:54:08.927Z,36.71
2022-08-11T15:56:36.595Z,36.79
2022-08-11T15:59:42.197Z,36.58
2022-08-11T16:02:32.641Z,36.68
2022-08-11T16:05:02.853Z,36.71
2022-08-11T16:07:36.911Z,37.45
2022-08-11T16:10:19.486Z,37.52
2022-08-11T16:13:06.276Z,37.70
2022-08-11T16:15:54.470Z,37.51
2022-08-11T16:18:23.237Z,37.66
2022-08-11T16:20:52.221Z,38.19
2022-08-11T16:23:19.940Z,37.98
2022-08-11T16:27:04.997Z,38.06
2022-08-11T16:28:34.613Z,38.14
2022-08-11T16:31:01.822Z,38.15
2022-08-11T16:33:49.797Z,38.59
2022-08-11T16:36:35.518Z,38.19
2022-08-11T16:39:02.726Z,38.29
2022-08-11T16:41:51.085Z,38.36
2022-08-11T16:44:38.390Z,38.41
2022-08-11T16:47:07.127Z,38.28
2022-08-11T16:49:37.387Z,38.37
2022-08-11T16:52:08.225Z,38.69
2022-08-11T16:54:35.570Z,38.84
2022-08-11T16:57:34.290Z,38.63
2022-08-11T17:00:06.923Z,38.38
2022-08-11T17:02:55.701Z,38.20
2022-08-11T17:05:54.671Z,38.19
2022-08-11T17:08:56.726Z,38.53
2022-08-11T17:11:45.615Z,38.36
2022-08-11T17:14:16.036Z,38.53
2022-08-11T17:16:42.970Z,38.00
2022-08-11T17:19:14.678Z,38.33
2022-08-11T17:22:02.452Z,38.24
2022-08-11T17:24:31.664Z,38.15
2022-08-11T17:26:59.918Z,38.20
2022-08-11T17:29:54.108Z,37.98
2022-08-11T17:32:56.401Z,38.35
2022-08-11T17:35:33.355Z,38.38
2022-08-11T17:38:21.106Z,38.28
2022-08-11T17:41:22.969Z,38.10
2022-08-11T17:44:10.088Z,38.13
2022-08-11T17:46:56.070Z,38.02
2022-08-11T17:49:23.336Z,38.13
2022-08-11T17:52:09.159Z,37.68
2022-08-11T17:54:55.901Z,37.86
2022-08-11T17:57:47.354Z,38.17
2022-08-11T18:00:14.865Z,38.26
2022-08-11T18:03:02.490Z,37.97
2022-08-11T18:05:31.014Z,38.00
2022-08-11T18:08:18.936Z,37.88
2022-08-11T18:11:05.531Z,38.06
2022-08-11T18:13:55.070Z,38.12
2022-08-11T18:16:40.505Z,37.86
2022-08-11T18:19:26.655Z,37.93
2022-08-11T18:22:16.052Z,37.79
2022-08-11T18:25:11.265Z,37.70
2022-08-11T18:27:59.716Z,37.79
2022-08-11T18:30:45.403Z,37.37
2022-08-11T18:34:03.915Z,37.37
2022-08-11T18:36:45.181Z,37.50
2022-08-11T18:39:32.389Z,37.13
2022-08-11T18:42:29.072Z,36.96
2022-08-11T18:45:18.278Z,37.38
2022-08-11T18:48:04.962Z,37.13
2022-08-11T18:50:56.797Z,37.23
2022-08-11T18:53:58.140Z,37.02
2022-08-11T18:56:44.556Z,37.10
2022-08-11T18:59:30.487Z,37.02
2022-08-11T19:02:16.520Z,37.30
2022-08-11T19:05:01.836Z,37.12
2022-08-11T19:07:47.806Z,37.11
2022-08-11T19:10:33.753Z,37.14
2022-08-11T19:13:19.457Z,37.35
2022-08-11T19:16:05.857Z,37.36
2022-08-11T19:18:53.173Z,37.40
2022-08-11T19:21:39.535Z,37.16
2022-08-11T19:24:25.684Z,37.40
2022-08-11T19:27:12.467Z,37.29
2022-08-11T19:30:06.935Z,37.70
2022-08-11T19:32:59.432Z,37.69
2022-08-11T19:35:45.210Z,37.53
2022-08-11T19:38:31.215Z,37.76
2022-08-11T19:41:45.418Z,37.76
2022-08-11T19:44:23.477Z,37.72
2022-08-11T19:47:09.780Z,37.65
2022-08-11T19:49:55.471Z,37.86
2022-08-11T19:52:41.376Z,37.80
2022-08-11T19:55:27.603Z,37.98
2022-08-11T19:58:14.522Z,37.84
2022-08-11T20:01:00.235Z,38.17
2022-08-11T20:03:45.686Z,38.18
2022-08-11T20:06:32.318Z,37.59
2022-08-11T20:09:19.121Z,37.18
2022-08-11T20:12:11.097Z,36.92
2022-08-11T20:14:58.701Z,36.03
2022-08-11T20:17:47.731Z,35.68
2022-08-11T20:20:34.865Z,35.85
2022-08-11T20:23:23.748Z,35.08
2022-08-11T20:26:29.509Z,34.40
2022-08-11T20:29:16.600Z,33.99
2022-08-11T20:32:04.230Z,34.44
2022-08-11T20:34:55.039Z,34.21
2022-08-11T20:37:40.578Z,34.08
2022-08-11T20:40:26.773Z,34.41
2022-08-11T20:44:06.770Z,34.82
2022-08-11T20:46:20.184Z,35.17
2022-08-11T20:49:06.082Z,35.24
2022-08-11T20:51:51.522Z,35.37
2022-08-11T20:54:43.709Z,35.37
2022-08-11T20:57:59.883Z,35.47
2022-08-11T21:00:43.927Z,35.44
2022-08-11T21:03:36.167Z,35.58
2022-08-11T21:06:32.981Z,35.61
2022-08-11T21:09:21.785Z,35.42
2022-08-11T21:12:13.511Z,35.48
2022-08-11T21:14:59.993Z,35.65
2022-08-11T21:18:00.712Z,35.58
2022-08-11T21:20:52.357Z,35.74
2022-08-11T21:23:38.935Z,35.72
2022-08-11T21:26:27.687Z,35.96
2022-08-11T21:29:15.119Z,35.59
2022-08-11T21:32:00.915Z,35.48
2022-08-11T21:34:46.664Z,35.72
2022-08-11T21:37:34.964Z,35.59
2022-08-11T21:40:22.971Z,35.73
2022-08-11T21:43:08.796Z,35.56
2022-08-11T21:45:56.202Z,35.61
2022-08-11T21:48:43.062Z,35.51
2022-08-11T21:51:28.098Z,35.87
2022-08-11T21:54:13.481Z,35.76
2022-08-11T21:56:58.838Z,35.66
2022-08-11T21:59:54.653Z,35.67
2022-08-11T22:02:40.443Z,35.90
2022-08-11T22:05:26.610Z,35.83
2022-08-11T22:08:11.993Z,35.89
2022-08-11T22:10:57.502Z,35.71
2022-08-11T22:13:42.747Z,35.95
2022-08-11T22:16:48.121Z,35.62
2022-08-11T22:19:34.853Z,35.87
2022-08-11T22:22:26.332Z,35.81
2022-08-11T22:25:16.249Z,35.94
2022-08-11T22:28:02.260Z,35.69
2022-08-11T22:30:47.869Z,35.78
2022-08-11T22:33:33.416Z,35.76
2022-08-11T22:36:18.858Z,35.91
2022-08-11T22:39:04.878Z,35.89
2022-08-11T22:41:50.577Z,35.93
2022-08-11T22:44:35.888Z,35.89
2022-08-11T22:47:22.726Z,35.73
2022-08-11T22:50:16.649Z,35.77
2022-08-11T22:53:02.096Z,35.74
2022-08-11T22:55:47.949Z,35.82
2022-08-11T22:58:33.681Z,36.02
2022-08-11T23:01:19.180Z,35.83
2022-08-11T23:04:07.787Z,36.06
2022-08-11T23:06:54.108Z,35.82
2022-08-11T23:09:39.801Z,35.89
2022-08-11T23:12:25.311Z,35.69
2022-08-11T23:15:10.786Z,35.99
2022-08-11T23:17:56.084Z,35.74
2022-08-11T23:20:57.961Z,35.93
2022-08-11T23:23:44.380Z,35.96
2022-08-11T23:26:30.187Z,36.00
2022-08-11T23:29:16.733Z,35.84
2022-08-11T23:32:02.238Z,35.97
2022-08-11T23:35:04.848Z,36.05
2022-08-11T23:38:00.843Z,35.83
2022-08-11T23:40:46.489Z,36.00
2022-08-11T23:43:39.764Z,35.95
2022-08-11T23:46:24.982Z,35.91
2022-08-11T23:49:12.634Z,35.84
2022-08-11T23:51:58.668Z,35.98
2022-08-11T23:54:44.882Z,35.86
2022-08-11T23:57:31.028Z,35.92
